createdAt,value
2017-11-14T00:00:06.800Z,65.9
2017-11-14T00:00:30.183Z,66
2017-11-14T00:00:42.338Z,66
2017-11-14T00:00:53.652Z,66.1
2017-11-14T00:01:06.096Z,66.1
2017-11-14T00:01:18.007Z,66
2017-11-14T00:01:29.624Z,65.8
2017-11-14T00:01:44.737Z,66
2017-11-14T00:02:29.849Z,65.8
2017-11-14T00:02:41.999Z,65.7
2017-11-14T00:02:53.314Z,65.7
2017-11-14T00:03:04.650Z,65.8
2017-11-14T00:03:31.483Z,66.1
2017-11-14T00:03:44.601Z,66.1
2017-11-14T00:03:58.321Z,66.1
2017-11-14T00:04:13.238Z,65.9
2017-11-14T00:04:25.493Z,65.9
2017-11-14T00:04:36.707Z,65.8
2017-11-14T00:04:48.097Z,65.8
2017-11-14T00:05:03.466Z,65.9
2017-11-14T00:05:15.616Z,65.8
2017-11-14T00:05:26.974Z,66.1
2017-11-14T00:05:42.335Z,65.9
2017-11-14T00:05:54.501Z,66.1
2017-11-14T00:06:05.829Z,65.8
2017-11-14T00:06:21.238Z,65.7
2017-11-14T00:06:33.364Z,65.8
2017-11-14T00:06:46.327Z,66.1
2017-11-14T00:07:01.646Z,65.8
2017-11-14T00:07:13.782Z,66
2017-11-14T00:07:25.180Z,66
2017-11-14T00:07:40.489Z,65.8
2017-11-14T00:07:52.684Z,65.8
2017-11-14T00:08:04.032Z,65.7
2017-11-14T00:08:15.380Z,65.8
2017-11-14T00:08:26.679Z,66
2017-11-14T00:08:38.105Z,65.8
2017-11-14T00:08:49.395Z,65.8
2017-11-14T00:09:00.888Z,66.1
2017-11-14T00:09:16.124Z,65.8
2017-11-14T00:09:46.288Z,66
2017-11-14T00:10:07.720Z,66
2017-11-14T00:10:19.855Z,65.8
2017-11-14T00:10:31.099Z,65.5
2017-11-14T00:10:42.618Z,65.7
2017-11-14T00:10:57.874Z,65.7
2017-11-14T00:11:10.016Z,65.8
2017-11-14T00:11:35.269Z,65.7
2017-11-14T00:11:47.142Z,65.4
2017-11-14T00:11:58.443Z,65.4
2017-11-14T00:12:09.727Z,65.7
2017-11-14T00:12:21.177Z,65.8
2017-11-14T00:13:00.683Z,65.8
2017-11-14T00:13:12.819Z,65.8
2017-11-14T00:13:29.802Z,65.9
2017-11-14T00:13:45.909Z,66
2017-11-14T00:14:05.260Z,66
2017-11-14T00:14:17.450Z,65.8
2017-11-14T00:14:28.765Z,66.1
2017-11-14T00:14:40.119Z,66
2017-11-14T00:14:55.543Z,66
2017-11-14T00:15:08.582Z,66
2017-11-14T00:15:20.548Z,66
2017-11-14T00:15:35.904Z,65.8
2017-11-14T00:15:48.096Z,66.1
2017-11-14T00:16:03.472Z,66.1
2017-11-14T00:16:15.606Z,65.8
2017-11-14T00:16:37.948Z,66.1
2017-11-14T00:16:49.503Z,66.1
2017-11-14T00:17:00.864Z,65.8
2017-11-14T00:17:16.200Z,65.7
2017-11-14T00:17:28.382Z,65.7
2017-11-14T00:17:39.785Z,65.9
2017-11-14T00:17:51.060Z,65.8
2017-11-14T00:18:06.417Z,65.7
2017-11-14T00:18:18.538Z,66
2017-11-14T00:18:29.937Z,65.9
2017-11-14T00:18:41.291Z,65.8
2017-11-14T00:18:52.631Z,65.8
2017-11-14T00:19:08.015Z,65.8
2017-11-14T00:19:20.131Z,65.8
2017-11-14T00:19:35.505Z,65.8
2017-11-14T00:19:47.642Z,66.1
2017-11-14T00:19:58.971Z,66
2017-11-14T00:20:10.351Z,65.8
2017-11-14T00:20:26.285Z,65.9
2017-11-14T00:20:37.893Z,65.8
2017-11-14T00:20:53.229Z,65.7
2017-11-14T00:21:05.354Z,65.9
2017-11-14T00:21:16.676Z,65.9
2017-11-14T00:21:28.055Z,65.8
2017-11-14T00:21:39.404Z,66.1
2017-11-14T00:21:50.802Z,65.8
2017-11-14T00:22:02.147Z,65.9
2017-11-14T00:22:13.512Z,66.1
2017-11-14T00:22:24.846Z,66
2017-11-14T00:22:40.208Z,65.9
2017-11-14T00:22:56.327Z,66
2017-11-14T00:23:08.521Z,66.1
2017-11-14T00:23:19.957Z,65.8
2017-11-14T00:23:45.148Z,66.1
2017-11-14T00:23:56.919Z,66.5
2017-11-14T00:24:12.287Z,66.5
2017-11-14T00:24:24.564Z,65.8
2017-11-14T00:24:35.797Z,65.8
2017-11-14T00:24:47.185Z,66.1
2017-11-14T00:24:58.549Z,66
2017-11-14T00:25:09.903Z,65.9
2017-11-14T00:25:21.177Z,66.1
2017-11-14T00:25:36.569Z,66
2017-11-14T00:25:48.736Z,66
2017-11-14T00:26:04.052Z,66
2017-11-14T00:26:16.394Z,66.1
2017-11-14T00:26:27.619Z,65.9
2017-11-14T00:26:42.953Z,65.8
2017-11-14T00:26:55.164Z,66
2017-11-14T00:27:06.400Z,66
2017-11-14T00:27:17.984Z,66
2017-11-14T00:27:33.158Z,66
2017-11-14T00:27:45.321Z,66
2017-11-14T00:28:00.684Z,65.8
2017-11-14T00:28:12.849Z,65.8
2017-11-14T00:28:24.154Z,66.4
2017-11-14T00:28:35.536Z,66.2
2017-11-14T00:28:46.877Z,66.2
2017-11-14T00:29:02.228Z,66
2017-11-14T00:29:14.408Z,66.1
2017-11-14T00:29:27.357Z,66
2017-11-14T00:29:40.757Z,66.1
2017-11-14T00:29:51.634Z,66
2017-11-14T00:30:05.018Z,66
2017-11-14T00:30:18.506Z,66.2
2017-11-14T00:30:30.498Z,66.1
2017-11-14T00:30:41.900Z,66
2017-11-14T00:30:59.802Z,65.9
2017-11-14T00:31:10.929Z,66
2017-11-14T00:31:22.314Z,66.2
2017-11-14T00:31:33.665Z,66.1
2017-11-14T00:31:47.483Z,66.2
2017-11-14T00:32:03.581Z,66
2017-11-14T00:32:15.714Z,66
2017-11-14T00:32:31.096Z,66.1
2017-11-14T00:32:43.194Z,65.9
2017-11-14T00:32:55.527Z,66.2
2017-11-14T00:33:11.502Z,66.1
2017-11-14T00:33:33.168Z,65.9
2017-11-14T00:33:48.627Z,66.1
2017-11-14T00:34:15.297Z,66.1
2017-11-14T00:34:26.511Z,66.3
2017-11-14T00:34:41.942Z,66
2017-11-14T00:34:54.108Z,66.6
2017-11-14T00:35:09.435Z,65.9
2017-11-14T00:35:21.539Z,66.6
2017-11-14T00:35:32.925Z,66.3
2017-11-14T00:35:48.335Z,66.6
2017-11-14T00:36:00.432Z,66.6
2017-11-14T00:36:11.747Z,66.7
2017-11-14T00:36:23.113Z,66.6
2017-11-14T00:36:34.414Z,66.6
2017-11-14T00:36:45.873Z,66.7
2017-11-14T00:37:01.245Z,66.6
2017-11-14T00:37:13.391Z,66.4
2017-11-14T00:37:28.742Z,66.3
2017-11-14T00:37:40.839Z,66.3
2017-11-14T00:37:58.706Z,66.3
2017-11-14T00:38:09.949Z,66.5
2017-11-14T00:38:21.277Z,66.3
2017-11-14T00:38:32.662Z,66.3
2017-11-14T00:38:47.961Z,66.2
2017-11-14T00:39:00.177Z,66.2
2017-11-14T00:39:11.485Z,66.1
2017-11-14T00:39:26.874Z,66.4
2017-11-14T00:39:38.973Z,66.3
2017-11-14T00:39:50.353Z,66.3
2017-11-14T00:40:01.735Z,66.1
2017-11-14T00:40:13.068Z,66.1
2017-11-14T00:40:28.445Z,66.4
2017-11-14T00:40:40.663Z,66.1
2017-11-14T00:40:51.929Z,66.4
2017-11-14T00:41:07.255Z,66
2017-11-14T00:41:19.428Z,66.2
2017-11-14T00:41:34.800Z,66.1
2017-11-14T00:41:46.929Z,65.9
2017-11-14T00:41:58.356Z,66.1
2017-11-14T00:42:09.649Z,66.4
2017-11-14T00:42:27.519Z,66.8
2017-11-14T00:42:38.719Z,66.1
2017-11-14T00:42:50.176Z,66.1
2017-11-14T00:43:01.454Z,66.5
2017-11-14T00:43:12.803Z,66.4
2017-11-14T00:43:24.151Z,66.5
2017-11-14T00:43:35.529Z,66.6
2017-11-14T00:43:46.870Z,66.2
2017-11-14T00:43:58.196Z,66
2017-11-14T00:44:09.549Z,66.4
2017-11-14T00:44:24.933Z,66.1
2017-11-14T00:44:37.114Z,66.1
2017-11-14T00:44:48.411Z,66.2
2017-11-14T00:45:27.967Z,66.5
2017-11-14T00:45:44.080Z,66.8
2017-11-14T00:46:00.241Z,66.5
2017-11-14T00:46:18.434Z,66.5
2017-11-14T00:46:30.159Z,66.4
2017-11-14T00:46:41.514Z,66.5
2017-11-14T00:46:52.945Z,66.5
2017-11-14T00:47:05.793Z,66.7
2017-11-14T00:47:17.214Z,66.5
2017-11-14T00:47:28.543Z,66.5
2017-11-14T00:47:43.875Z,66.5
2017-11-14T00:47:56.084Z,66.4
2017-11-14T00:48:11.395Z,66.3
2017-11-14T00:48:23.520Z,66.2
2017-11-14T00:48:34.879Z,67.1
2017-11-14T00:48:46.260Z,66.5
2017-11-14T00:48:57.579Z,66.5
2017-11-14T00:49:09.021Z,67.1
2017-11-14T00:49:20.313Z,66.6
2017-11-14T00:49:35.702Z,66.6
2017-11-14T00:49:47.810Z,66.5
2017-11-14T00:49:59.208Z,66.5
2017-11-14T00:50:10.916Z,66.4
2017-11-14T00:50:25.866Z,66.5
2017-11-14T00:50:38.051Z,66.5
2017-11-14T00:50:53.366Z,66.4
2017-11-14T00:51:05.588Z,66.5
2017-11-14T00:51:26.902Z,66.5
2017-11-14T00:51:52.359Z,66.3
2017-11-14T00:52:09.620Z,66.3
2017-11-14T00:52:21.357Z,66.3
2017-11-14T00:52:34.689Z,66.1
2017-11-14T00:52:49.716Z,66.7
2017-11-14T00:53:05.787Z,66.3
2017-11-14T00:53:18.048Z,66.3
2017-11-14T00:53:29.324Z,66.7
2017-11-14T00:53:40.716Z,66.5
2017-11-14T00:54:40.332Z,66.7
2017-11-14T00:54:51.722Z,66.1
2017-11-14T00:55:09.663Z,66.2
2017-11-14T00:55:24.793Z,66.3
2017-11-14T00:55:40.999Z,66.4
2017-11-14T00:56:23.655Z,66.2
2017-11-14T00:56:34.985Z,66.4
2017-11-14T00:57:01.405Z,66.2
2017-11-14T00:57:18.072Z,66.1
2017-11-14T00:57:33.963Z,66.1
2017-11-14T00:57:50.054Z,66.2
2017-11-14T00:58:06.219Z,65.9
2017-11-14T00:58:22.354Z,66.7
2017-11-14T00:59:01.878Z,66.4
2017-11-14T00:59:13.234Z,66.4
2017-11-14T00:59:24.549Z,66.1
2017-11-14T00:59:40.040Z,66.1
2017-11-14T00:59:56.039Z,66.1
2017-11-14T01:00:08.220Z,66
2017-11-14T01:00:23.490Z,66
2017-11-14T01:00:35.754Z,66.4
2017-11-14T01:00:51.148Z,66.1
2017-11-14T01:01:03.220Z,66.3
2017-11-14T01:01:14.605Z,66.5
2017-11-14T01:01:28.403Z,66.5
2017-11-14T01:01:44.499Z,66
2017-11-14T01:01:56.627Z,66.1
2017-11-14T01:02:08.050Z,66
2017-11-14T01:02:19.341Z,66.4
2017-11-14T01:02:30.726Z,66.3
2017-11-14T01:03:15.005Z,66.1
2017-11-14T01:03:27.150Z,66.6
2017-11-14T01:03:42.507Z,66.4
2017-11-14T01:03:54.659Z,66.4
2017-11-14T01:04:09.984Z,66.5
2017-11-14T01:04:26.266Z,66.1
2017-11-14T01:05:08.513Z,66.5
2017-11-14T01:05:20.094Z,66.4
2017-11-14T01:05:31.544Z,66
2017-11-14T01:05:42.775Z,66.1
2017-11-14T01:05:54.110Z,66.1
2017-11-14T01:06:05.514Z,66
2017-11-14T01:06:17.866Z,66
2017-11-14T01:06:33.767Z,66
2017-11-14T01:06:49.953Z,66.2
2017-11-14T01:07:03.421Z,66.1
2017-11-14T01:07:20.917Z,66.1
2017-11-14T01:07:32.821Z,66
2017-11-14T01:07:48.165Z,66
2017-11-14T01:08:00.317Z,66.1
2017-11-14T01:08:12.337Z,66
2017-11-14T01:08:24.722Z,66.2
2017-11-14T01:08:36.003Z,66.3
2017-11-14T01:08:47.370Z,66.2
2017-11-14T01:08:58.718Z,66.4
2017-11-14T01:09:14.010Z,66.1
2017-11-14T01:09:26.150Z,65.8
2017-11-14T01:09:41.542Z,66
2017-11-14T01:10:06.202Z,65.7
2017-11-14T01:10:17.976Z,65.9
2017-11-14T01:10:33.223Z,65.8
2017-11-14T01:10:49.516Z,66.3
2017-11-14T01:11:01.550Z,66.4
2017-11-14T01:11:12.867Z,66.4
2017-11-14T01:11:24.195Z,66
2017-11-14T01:11:35.574Z,66.2
2017-11-14T01:11:47.071Z,66.2
2017-11-14T01:12:04.142Z,66.5
2017-11-14T01:12:16.028Z,66.5
2017-11-14T01:12:27.429Z,66.6
2017-11-14T01:12:38.759Z,66.3
2017-11-14T01:12:50.115Z,66.3
2017-11-14T01:13:05.406Z,66.3
2017-11-14T01:13:17.605Z,66.4
2017-11-14T01:13:57.128Z,66.1
2017-11-14T01:14:09.284Z,66.1
2017-11-14T01:14:22.908Z,66.4
2017-11-14T01:14:52.694Z,66.3
2017-11-14T01:15:08.198Z,66.3
2017-11-14T01:15:21.303Z,66.3
2017-11-14T01:15:57.388Z,66.4
2017-11-14T01:16:12.695Z,66.9
2017-11-14T01:16:30.871Z,66.5
2017-11-14T01:16:42.595Z,66.5
2017-11-14T01:16:54.013Z,66.5
2017-11-14T01:17:05.326Z,66.6
2017-11-14T01:17:16.710Z,66.4
2017-11-14T01:17:28.122Z,66.4
2017-11-14T01:18:03.593Z,66.2
2017-11-14T01:18:15.895Z,66.2
2017-11-14T01:18:55.253Z,66.4
2017-11-14T01:19:06.587Z,65.9
2017-11-14T01:19:17.953Z,66.6
2017-11-14T01:19:33.520Z,66.1
2017-11-14T01:19:45.418Z,66.2
2017-11-14T01:19:56.776Z,66.5
2017-11-14T01:20:08.131Z,66.5
2017-11-14T01:20:19.455Z,66.3
2017-11-14T01:20:30.899Z,66.9
2017-11-14T01:20:46.176Z,67
2017-11-14T01:21:02.323Z,66.4
2017-11-14T01:21:18.505Z,66.5
2017-11-14T01:21:30.598Z,66.5
2017-11-14T01:21:42.139Z,66.5
2017-11-14T01:21:57.373Z,67.1
2017-11-14T01:22:13.521Z,67.2
2017-11-14T01:22:25.651Z,67
2017-11-14T01:22:41.097Z,66.5
2017-11-14T01:22:53.136Z,66.5
2017-11-14T01:23:15.114Z,67.1
2017-11-14T01:23:31.069Z,67
2017-11-14T01:23:47.285Z,66.4
2017-11-14T01:24:03.445Z,66.3
2017-11-14T01:24:15.574Z,66.3
2017-11-14T01:24:33.395Z,66.6
2017-11-14T01:24:44.572Z,66.3
2017-11-14T01:24:59.992Z,66.7
2017-11-14T01:25:12.149Z,66.6
2017-11-14T01:25:23.456Z,66.6
2017-11-14T01:25:34.800Z,66.7
2017-11-14T01:25:50.219Z,66.7
2017-11-14T01:26:02.366Z,66.3
2017-11-14T01:26:13.683Z,66.2
2017-11-14T01:26:30.070Z,66.2
2017-11-14T01:26:41.215Z,66.4
2017-11-14T01:26:52.528Z,66.6
2017-11-14T01:27:03.875Z,66.5
2017-11-14T01:27:15.276Z,66.6
2017-11-14T01:27:28.264Z,66.3
2017-11-14T01:27:39.619Z,66.4
2017-11-14T01:27:50.962Z,66.6
2017-11-14T01:28:06.328Z,66.6
2017-11-14T01:28:18.392Z,66.6
2017-11-14T01:28:33.733Z,66.5
2017-11-14T01:28:45.948Z,66.3
2017-11-14T01:28:57.267Z,66.2
2017-11-14T01:29:12.751Z,66.7
2017-11-14T01:29:24.819Z,66.2
2017-11-14T01:29:40.143Z,66.7
2017-11-14T01:29:52.324Z,66.8
2017-11-14T01:30:03.678Z,66.6
2017-11-14T01:30:18.993Z,67.3
2017-11-14T01:30:31.147Z,67.4
2017-11-14T01:30:46.552Z,67.1
2017-11-14T01:30:58.684Z,66.7
2017-11-14T01:31:10.080Z,66.7
2017-11-14T01:31:21.380Z,66.9
2017-11-14T01:31:32.747Z,66.8
2017-11-14T01:31:44.127Z,67.1
2017-11-14T01:31:55.445Z,67.1
2017-11-14T01:32:06.812Z,67.6
2017-11-14T01:32:18.163Z,67.4
2017-11-14T01:32:29.544Z,67.4
2017-11-14T01:32:40.899Z,67.4
2017-11-14T01:32:52.185Z,67.5
2017-11-14T01:33:03.563Z,67.6
2017-11-14T01:33:14.834Z,67.5
2017-11-14T01:33:30.268Z,66.8
2017-11-14T01:33:42.384Z,66.8
2017-11-14T01:33:53.786Z,67
2017-11-14T01:34:09.147Z,67
2017-11-14T01:34:21.268Z,67
2017-11-14T01:34:32.666Z,66.8
2017-11-14T01:34:47.943Z,66.8
2017-11-14T01:35:04.103Z,66.7
2017-11-14T01:35:16.271Z,67.1
2017-11-14T01:35:31.631Z,67.1
2017-11-14T01:35:47.874Z,66.8
2017-11-14T01:35:59.980Z,66.8
2017-11-14T01:36:11.288Z,67.5
2017-11-14T01:36:22.690Z,66.8
2017-11-14T01:36:34.009Z,66.9
2017-11-14T01:36:49.367Z,66.7
2017-11-14T01:37:01.557Z,66.8
2017-11-14T01:37:18.426Z,66.9
2017-11-14T01:37:30.655Z,66.8
2017-11-14T01:37:45.906Z,66.9
2017-11-14T01:37:58.127Z,67
2017-11-14T01:38:09.478Z,67.3
2017-11-14T01:38:20.862Z,67
2017-11-14T01:38:32.166Z,67.4
2017-11-14T01:38:43.562Z,66.8
2017-11-14T01:38:54.925Z,66.8
2017-11-14T01:39:06.248Z,66.8
2017-11-14T01:39:18.178Z,66.9
2017-11-14T01:39:30.561Z,66.8
2017-11-14T01:40:26.113Z,67.3
2017-11-14T01:40:38.218Z,66.8
2017-11-14T01:40:49.569Z,66.8
2017-11-14T01:41:04.929Z,66.9
2017-11-14T01:41:21.000Z,67
2017-11-14T01:41:33.165Z,67.2
2017-11-14T01:41:44.551Z,66.7
2017-11-14T01:41:55.905Z,66.7
2017-11-14T01:42:07.303Z,67.4
2017-11-14T01:42:22.619Z,66.7
2017-11-14T01:42:34.826Z,67
2017-11-14T01:42:46.096Z,66.9
2017-11-14T01:43:01.459Z,66.9
2017-11-14T01:43:13.613Z,67.3
2017-11-14T01:43:24.987Z,66.8
2017-11-14T01:43:36.328Z,66.9
2017-11-14T01:43:47.733Z,67.2
2017-11-14T01:43:59.098Z,66.8
2017-11-14T01:44:20.945Z,67
2017-11-14T01:44:32.973Z,66.7
2017-11-14T01:44:44.307Z,66.8
2017-11-14T01:45:11.360Z,66.9
2017-11-14T01:45:23.074Z,67.3
2017-11-14T01:45:38.399Z,66.8
2017-11-14T01:45:50.535Z,67.3
2017-11-14T01:46:08.377Z,66.8
2017-11-14T01:46:19.669Z,66.8
2017-11-14T01:46:34.989Z,66.8
2017-11-14T01:46:47.145Z,67.3
2017-11-14T01:47:06.482Z,66.9
2017-11-14T01:47:17.888Z,66.8
2017-11-14T01:47:33.216Z,66.8
2017-11-14T01:47:45.364Z,66.6
2017-11-14T01:47:56.712Z,67.1
2017-11-14T01:48:08.047Z,67.1
2017-11-14T01:48:23.855Z,67.2
2017-11-14T01:48:35.585Z,67
2017-11-14T01:48:50.900Z,67.1
2017-11-14T01:49:07.074Z,67.2
2017-11-14T01:49:19.250Z,67.1
2017-11-14T01:49:30.605Z,66.8
2017-11-14T01:49:41.980Z,66.7
2017-11-14T01:49:53.349Z,66.7
2017-11-14T01:50:04.657Z,66.8
2017-11-14T01:50:15.977Z,66.6
2017-11-14T01:50:31.295Z,66.8
2017-11-14T01:50:43.512Z,67.2
2017-11-14T01:50:58.833Z,67.1
2017-11-14T01:51:11.027Z,67.2
2017-11-14T01:51:22.332Z,67.4
2017-11-14T01:51:37.731Z,67.1
2017-11-14T01:51:49.829Z,67.3
2017-11-14T01:52:07.710Z,67.3
2017-11-14T01:52:22.956Z,67.2
2017-11-14T01:52:39.145Z,67
2017-11-14T01:52:51.279Z,67.1
2017-11-14T01:53:03.619Z,67.4
2017-11-14T01:53:15.573Z,67
2017-11-14T01:53:26.894Z,67.1
2017-11-14T01:53:40.313Z,67
2017-11-14T01:53:57.306Z,67.3
2017-11-14T01:54:14.975Z,67.1
2017-11-14T01:54:30.710Z,66.8
2017-11-14T01:54:45.374Z,67
2017-11-14T01:54:57.477Z,67.4
2017-11-14T01:55:12.813Z,67.3
2017-11-14T01:55:24.995Z,66.7
2017-11-14T01:55:36.340Z,66.9
2017-11-14T01:55:47.688Z,67
2017-11-14T01:55:59.101Z,66.9
2017-11-14T01:56:10.503Z,67.1
2017-11-14T01:56:25.676Z,67
2017-11-14T01:56:37.879Z,67
2017-11-14T01:56:49.249Z,66.8
2017-11-14T01:57:00.879Z,67.2
2017-11-14T01:57:11.978Z,67.2
2017-11-14T01:57:23.323Z,66.7
2017-11-14T01:57:38.737Z,67
2017-11-14T01:57:50.782Z,67.3
2017-11-14T01:58:02.209Z,67.4
2017-11-14T01:58:13.511Z,67
2017-11-14T01:58:24.839Z,67.3
2017-11-14T01:58:36.216Z,67.4
2017-11-14T01:58:51.542Z,67
2017-11-14T01:59:07.703Z,67.4
2017-11-14T01:59:20.863Z,67.6
2017-11-14T01:59:32.793Z,67.4
2017-11-14T01:59:44.165Z,67.1
2017-11-14T01:59:56.037Z,67.3
2017-11-14T02:00:06.896Z,67.4
2017-11-14T02:00:22.236Z,67.2
2017-11-14T02:00:38.327Z,67.3
2017-11-14T02:00:50.590Z,67.1
2017-11-14T02:01:01.890Z,67.2
2017-11-14T02:01:13.249Z,67.4
2017-11-14T02:01:24.612Z,67.4
2017-11-14T02:01:37.027Z,67.4
2017-11-14T02:01:52.974Z,67.3
2017-11-14T02:02:09.054Z,67.3
2017-11-14T02:02:21.213Z,67.4
2017-11-14T02:02:45.613Z,67.5
2017-11-14T02:02:56.689Z,67.5
2017-11-14T02:03:32.493Z,67.4
2017-11-14T02:03:43.599Z,67.4
2017-11-14T02:03:58.904Z,67.5
2017-11-14T02:04:11.066Z,67.4
2017-11-14T02:04:22.508Z,67.5
2017-11-14T02:04:37.769Z,67.5
2017-11-14T02:04:53.144Z,67.1
2017-11-14T02:05:04.497Z,67.4
2017-11-14T02:05:19.860Z,67.2
2017-11-14T02:05:32.005Z,67.6
2017-11-14T02:05:43.349Z,67.5
2017-11-14T02:05:54.799Z,67.7
2017-11-14T02:06:10.043Z,67.4
2017-11-14T02:06:22.263Z,67.6
2017-11-14T02:06:33.579Z,67.5
2017-11-14T02:06:44.919Z,67.5
2017-11-14T02:06:56.289Z,67.5
2017-11-14T02:07:07.572Z,67.2
2017-11-14T02:07:19.008Z,67.4
2017-11-14T02:07:34.341Z,67.3
2017-11-14T02:07:46.515Z,67.5
2017-11-14T02:07:57.834Z,67.2
2017-11-14T02:08:09.234Z,67.5
2017-11-14T02:08:20.575Z,67.7
2017-11-14T02:08:52.620Z,67.5
2017-11-14T02:09:08.044Z,67.3
2017-11-14T02:09:20.211Z,67.2
2017-11-14T02:09:31.553Z,67.4
2017-11-14T02:09:46.899Z,67.4
2017-11-14T02:09:59.092Z,67.2
2017-11-14T02:10:10.441Z,67.4
2017-11-14T02:10:21.758Z,67.2
2017-11-14T02:10:33.098Z,67.3
2017-11-14T02:10:48.459Z,67.3
2017-11-14T02:11:00.642Z,67.4
2017-11-14T02:11:14.510Z,67.3
2017-11-14T02:11:26.524Z,67.4
2017-11-14T02:11:37.856Z,67.5
2017-11-14T02:11:49.279Z,67.3
2017-11-14T02:12:04.587Z,67.4
2017-11-14T02:12:16.724Z,67.4
2017-11-14T02:12:40.610Z,67.4
2017-11-14T02:12:56.280Z,67.5
2017-11-14T02:13:20.406Z,67.5
2017-11-14T02:13:32.561Z,67.4
2017-11-14T02:13:43.910Z,67.4
2017-11-14T02:13:59.260Z,66.9
2017-11-14T02:14:15.393Z,67.3
2017-11-14T02:14:37.515Z,67
2017-11-14T02:14:48.530Z,67.5
2017-11-14T02:14:59.916Z,67.4
2017-11-14T02:15:11.188Z,67.5
2017-11-14T02:15:26.728Z,67.2
2017-11-14T02:15:38.757Z,67.4
2017-11-14T02:15:50.105Z,67.4
2017-11-14T02:16:01.454Z,67.3
2017-11-14T02:16:42.587Z,67.3
2017-11-14T02:16:54.686Z,67.4
2017-11-14T02:17:06.090Z,67.3
2017-11-14T02:17:19.896Z,67.3
2017-11-14T02:17:31.947Z,67.4
2017-11-14T02:17:43.347Z,67.4
2017-11-14T02:18:04.662Z,67.2
2017-11-14T02:18:15.626Z,67.3
2017-11-14T02:18:26.982Z,67.5
2017-11-14T02:18:40.326Z,67.5
2017-11-14T02:19:01.203Z,67.4
2017-11-14T02:19:16.305Z,67.2
2017-11-14T02:19:28.422Z,67.9
2017-11-14T02:19:43.693Z,67.7
2017-11-14T02:19:55.813Z,68
2017-11-14T02:20:07.229Z,67
2017-11-14T02:20:20.238Z,67.5
2017-11-14T02:20:31.512Z,67.8
2017-11-14T02:20:58.528Z,67.9
2017-11-14T02:21:14.230Z,67.7
2017-11-14T02:21:30.403Z,67.5
2017-11-14T02:21:46.560Z,67.7
2017-11-14T02:22:02.754Z,67.9
2017-11-14T02:22:29.348Z,67.7
2017-11-14T02:22:40.647Z,67.6
2017-11-14T02:22:51.972Z,67.4
2017-11-14T02:23:21.055Z,67.9
2017-11-14T02:23:32.463Z,67.5
2017-11-14T02:23:43.760Z,67.7
2017-11-14T02:23:59.104Z,67.7
2017-11-14T02:24:15.277Z,67.7
2017-11-14T02:24:27.437Z,67.4
2017-11-14T02:24:45.252Z,67.9
2017-11-14T02:25:00.572Z,67.4
2017-11-14T02:25:22.656Z,67.3
2017-11-14T02:25:33.688Z,67.4
2017-11-14T02:25:49.519Z,67.5
2017-11-14T02:26:01.178Z,67.4
2017-11-14T02:26:12.512Z,67.5
2017-11-14T02:26:25.086Z,67.6
2017-11-14T02:26:42.801Z,67.2
2017-11-14T02:26:54.569Z,67.4
2017-11-14T02:27:09.923Z,67.4
2017-11-14T02:27:22.104Z,67.4
2017-11-14T02:27:39.399Z,67.5
2017-11-14T02:27:55.162Z,67.4
2017-11-14T02:28:11.361Z,67.2
2017-11-14T02:28:27.506Z,67.4
2017-11-14T02:28:43.616Z,67.5
2017-11-14T02:29:14.383Z,67.4
2017-11-14T02:30:00.181Z,67.4
2017-11-14T02:30:11.422Z,67.4
2017-11-14T02:30:22.859Z,67.3
2017-11-14T02:30:34.125Z,67.4
2017-11-14T02:30:45.517Z,67.7
2017-11-14T02:30:56.807Z,67.9
2017-11-14T02:31:08.243Z,67.5
2017-11-14T02:31:19.559Z,67.7
2017-11-14T02:31:34.933Z,67.4
2017-11-14T02:31:47.096Z,67.6
2017-11-14T02:32:02.530Z,67.4
2017-11-14T02:32:14.579Z,67.5
2017-11-14T02:32:29.920Z,67.5
2017-11-14T02:32:42.124Z,67.6
2017-11-14T02:32:53.407Z,67.5
2017-11-14T02:33:08.782Z,67.5
2017-11-14T02:33:20.908Z,67.6
2017-11-14T02:33:32.324Z,67.8
2017-11-14T02:33:47.655Z,67.5
2017-11-14T02:33:59.833Z,67.7
2017-11-14T02:34:11.135Z,67.8
2017-11-14T02:34:22.507Z,67.7
2017-11-14T02:34:33.855Z,67.7
2017-11-14T02:34:45.164Z,67.2
2017-11-14T02:34:56.527Z,67.3
2017-11-14T02:35:07.854Z,67.4
2017-11-14T02:35:19.242Z,67.4
2017-11-14T02:35:30.655Z,67.4
2017-11-14T02:35:41.982Z,67.3
2017-11-14T02:35:53.360Z,67.4
2017-11-14T02:36:04.701Z,67.4
2017-11-14T02:36:20.019Z,67.4
2017-11-14T02:36:36.188Z,67.5
2017-11-14T02:36:48.317Z,67.4
2017-11-14T02:37:05.653Z,67.5
2017-11-14T02:37:18.506Z,67.4
2017-11-14T02:37:30.406Z,67.4
2017-11-14T02:37:41.737Z,67.4
2017-11-14T02:37:57.116Z,66.7
2017-11-14T02:38:13.271Z,67
2017-11-14T02:38:31.888Z,67
2017-11-14T02:38:43.211Z,67
2017-11-14T02:38:58.499Z,66.7
2017-11-14T02:39:10.688Z,66.7
2017-11-14T02:39:22.000Z,66.9
2017-11-14T02:39:37.369Z,66.7
2017-11-14T02:39:49.526Z,66.7
2017-11-14T02:40:01.947Z,66.9
2017-11-14T02:40:17.878Z,67.1
2017-11-14T02:40:29.978Z,66.7
2017-11-14T02:40:41.328Z,67.3
2017-11-14T02:40:56.736Z,67.3
2017-11-14T02:41:08.894Z,67.1
2017-11-14T02:41:26.668Z,67.2
2017-11-14T02:41:38.264Z,66.8
2017-11-14T02:42:03.340Z,67.1
2017-11-14T02:42:15.059Z,67
2017-11-14T02:42:27.047Z,67.3
2017-11-14T02:42:41.401Z,67.1
2017-11-14T02:42:52.313Z,67.3
2017-11-14T02:43:03.666Z,66.8
2017-11-14T02:43:19.058Z,66.9
2017-11-14T02:43:31.229Z,66.9
2017-11-14T02:43:42.527Z,66.6
2017-11-14T02:43:53.901Z,66.9
2017-11-14T02:44:05.207Z,66.9
2017-11-14T02:44:16.614Z,66.8
2017-11-14T02:44:27.918Z,66.9
2017-11-14T02:44:39.310Z,66.8
2017-11-14T02:44:50.639Z,67
2017-11-14T02:45:02.061Z,66.9
2017-11-14T02:45:13.383Z,67.3
2017-11-14T02:45:24.718Z,66.9
2017-11-14T02:45:36.052Z,67.2
2017-11-14T02:45:47.501Z,67.2
2017-11-14T02:45:58.787Z,67.2
2017-11-14T02:46:20.099Z,67.3
2017-11-14T02:46:31.081Z,67.2
2017-11-14T02:46:42.427Z,67.4
2017-11-14T02:46:53.782Z,67
2017-11-14T02:47:09.149Z,66.8
2017-11-14T02:47:25.299Z,66.9
2017-11-14T02:47:41.445Z,67
2017-11-14T02:47:53.654Z,67.2
2017-11-14T02:48:05.007Z,67.2
2017-11-14T02:48:16.359Z,67.2
2017-11-14T02:48:31.665Z,67.2
2017-11-14T02:48:43.865Z,67
2017-11-14T02:48:55.219Z,67.3
2017-11-14T02:49:06.566Z,67
2017-11-14T02:49:17.901Z,67.2
2017-11-14T02:49:29.250Z,67
2017-11-14T02:49:40.648Z,67.1
2017-11-14T02:49:55.955Z,67.1
2017-11-14T02:50:28.610Z,67
2017-11-14T02:50:44.285Z,67.3
2017-11-14T02:51:00.485Z,67
2017-11-14T02:51:31.081Z,67
2017-11-14T02:51:43.153Z,66.9
2017-11-14T02:51:54.505Z,67
2017-11-14T02:52:05.896Z,67.2
2017-11-14T02:52:21.229Z,67.2
2017-11-14T02:52:33.370Z,67.3
2017-11-14T02:52:44.681Z,67.4
2017-11-14T02:52:56.029Z,66.9
2017-11-14T02:53:12.057Z,67.1
2017-11-14T02:53:23.555Z,66.9
2017-11-14T02:53:37.473Z,66.9
2017-11-14T02:53:53.427Z,67
2017-11-14T02:54:09.586Z,67.2
2017-11-14T02:54:21.984Z,66.6
2017-11-14T02:54:33.126Z,67.2
2017-11-14T02:54:44.488Z,66.8
2017-11-14T02:55:02.371Z,66.8
2017-11-14T02:55:17.603Z,66.4
2017-11-14T02:55:58.123Z,66.8
2017-11-14T02:56:14.089Z,66.6
2017-11-14T02:56:26.916Z,66.3
2017-11-14T02:56:39.141Z,66.7
2017-11-14T02:56:50.481Z,66.3
2017-11-14T02:57:05.364Z,67.2
2017-11-14T02:57:16.379Z,66.8
2017-11-14T02:57:27.746Z,66.9
2017-11-14T02:57:41.609Z,67.4
2017-11-14T02:57:53.728Z,66.8
2017-11-14T02:58:09.107Z,66.9
2017-11-14T02:58:21.160Z,67.3
2017-11-14T02:58:36.532Z,67.4
2017-11-14T02:58:55.162Z,67
2017-11-14T02:59:08.010Z,67
2017-11-14T02:59:25.832Z,66.7
2017-11-14T02:59:37.065Z,66.5
2017-11-14T02:59:52.480Z,66.9
2017-11-14T03:00:04.606Z,66.5
2017-11-14T03:00:20.316Z,66.5
2017-11-14T03:00:37.183Z,66.5
2017-11-14T03:00:52.317Z,66.5
2017-11-14T03:01:20.954Z,66.7
2017-11-14T03:01:37.422Z,66.1
2017-11-14T03:01:49.571Z,66.3
2017-11-14T03:02:04.920Z,66.5
2017-11-14T03:02:17.035Z,66.5
2017-11-14T03:02:32.408Z,66.6
2017-11-14T03:02:48.556Z,65.9
2017-11-14T03:03:00.726Z,66.1
2017-11-14T03:03:32.045Z,66.1
2017-11-14T03:03:42.720Z,66.3
2017-11-14T03:03:58.140Z,66.5
2017-11-14T03:04:11.565Z,67.2
2017-11-14T03:04:23.223Z,67.2
2017-11-14T03:04:38.668Z,67.2
2017-11-14T03:04:54.658Z,66.7
2017-11-14T03:05:06.881Z,66.2
2017-11-14T03:05:22.307Z,66.1
2017-11-14T03:05:34.395Z,66.3
2017-11-14T03:06:15.490Z,66.5
2017-11-14T03:06:33.679Z,66.2
2017-11-14T03:06:50.038Z,66.6
2017-11-14T03:07:05.542Z,66.5
2017-11-14T03:07:17.698Z,66.5
2017-11-14T03:07:33.088Z,66.5
2017-11-14T03:07:45.207Z,66.6
2017-11-14T03:07:56.523Z,66.6
2017-11-14T03:08:09.499Z,66.2
2017-11-14T03:08:21.136Z,66.9
2017-11-14T03:08:32.243Z,66.7
2017-11-14T03:08:43.581Z,67
2017-11-14T03:09:13.951Z,66.6
2017-11-14T03:09:29.497Z,66.2
2017-11-14T03:09:45.656Z,66.5
2017-11-14T03:09:57.797Z,66.5
2017-11-14T03:10:13.150Z,66.7
2017-11-14T03:10:29.337Z,66.6
2017-11-14T03:10:41.426Z,66.5
2017-11-14T03:11:24.170Z,66.8
2017-11-14T03:11:36.309Z,66.6